Wallace, New York
Current Conditions -  °F | °C
As of 6:54 PM on Friday 31 Oct 2014 (Local Time) from KDSV Reporting Station
Overcast Overcast  
Wind Chill: 44°   Ceiling: 4300
Heat Index: 44°   Visibility: 10mi
Dew Point: 41°   Wind: 3mph
Humidity: 89%   Direction: 300°WNW
Pressure: 29.94"   Gusts: NA
Location:  42.4193°N, 77.4498°W
Report Text: KDSV 312254Z AUTO 30003KT 10SM FEW031 BKN043 OVC060 07/05 A2994 RMK AO2 RAB20E39 SLP152 P0000 T00670050
Loading
Personal Weather Stations






























Interactive Weather Map
Tropical Storm Tracking
New forecast layout! Learn more

10-Day Weather Forecast

Advertisements
Track Severe Weather on mobile